Time,TemperatureF,DewpointF,PressureIn,WindDirection,WindDirectionDegrees,WindSpeedMPH,WindSpeedGustMPH,Humidity,HourlyPrecipIn,Conditions,Clouds,dailyrainin,SoftwareType,DateUTC
2013-04-19 00:01:00,52.7,39.2,29.91,SW,225,0.0,3.0,60,0.00,,,0.00,VWS V14.00,2013-04-19 04:01:00,
2013-04-19 00:06:00,52.7,39.2,29.91,SW,225,2.3,6.5,60,0.00,,,0.00,VWS V14.00,2013-04-19 04:06:00,
2013-04-19 00:11:00,52.7,39.2,29.91,WSW,248,7.8,8.8,60,0.00,,,0.00,VWS V14.00,2013-04-19 04:11:00,
2013-04-19 00:16:00,52.7,39.2,29.91,North,0,0.0,1.0,60,0.00,,,0.00,VWS V14.00,2013-04-19 04:16:00,
2013-04-19 00:21:00,52.9,39.8,29.91,SW,225,0.0,1.0,61,0.00,,,0.00,VWS V14.00,2013-04-19 04:21:00,
2013-04-19 00:26:00,52.9,40.6,29.91,SW,225,5.9,6.9,63,0.00,,,0.00,VWS V14.00,2013-04-19 04:26:00,
2013-04-19 00:31:00,52.9,40.6,29.91,SW,225,1.6,2.6,63,0.00,,,0.00,VWS V14.00,2013-04-19 04:31:00,
2013-04-19 00:36:00,53.1,40.4,29.91,WSW,248,1.6,3.0,62,0.00,,,0.00,VWS V14.00,2013-04-19 04:36:00,
2013-04-19 00:41:00,53.1,40.0,29.91,SE,135,0.0,6.1,61,0.00,,,0.00,VWS V14.00,2013-04-19 04:41:00,
2013-04-19 00:46:00,53.1,40.4,29.91,SW,225,1.6,2.6,62,0.00,,,0.00,VWS V14.00,2013-04-19 04:46:00,
2013-04-19 00:51:00,53.1,40.8,29.91,WSW,248,0.0,1.0,63,0.00,,,0.00,VWS V14.00,2013-04-19 04:51:00,
2013-04-19 00:56:00,53.1,40.8,29.91,SW,225,1.6,2.6,63,0.00,,,0.00,VWS V14.00,2013-04-19 04:56:00,
2013-04-19 01:01:00,53.1,40.4,29.91,SW,225,1.6,2.6,62,0.00,,,0.00,VWS V14.00,2013-04-19 05:01:00,
2013-04-19 01:06:00,53.1,40.0,29.91,WSW,248,4.3,5.3,61,0.00,,,0.00,VWS V14.00,2013-04-19 05:06:00,
2013-04-19 01:11:00,53.2,41.4,29.91,SSW,202,0.0,1.0,64,0.00,,,0.00,VWS V14.00,2013-04-19 05:11:00,
2013-04-19 01:16:00,53.2,41.4,29.91,SSE,158,2.7,3.7,64,0.00,,,0.00,VWS V14.00,2013-04-19 05:16:00,
2013-04-19 01:21:00,53.2,41.8,29.91,WSW,248,0.0,1.0,65,0.00,,,0.00,VWS V14.00,2013-04-19 05:21:00,
2013-04-19 01:26:00,53.2,41.4,29.91,SW,225,0.0,1.0,64,0.00,,,0.00,VWS V14.00,2013-04-19 05:26:00,
2013-04-19 01:31:00,53.4,42.0,29.91,WSW,248,0.0,1.0,65,0.00,,,0.00,VWS V14.00,2013-04-19 05:31:00,
2013-04-19 01:36:00,53.4,43.1,29.91,West,270,2.3,3.3,68,0.00,,,0.00,VWS V14.00,2013-04-19 05:36:00,
2013-04-19 01:41:00,53.6,43.3,29.91,SW,225,0.0,1.0,68,0.00,,,0.00,VWS V14.00,2013-04-19 05:41:00,
2013-04-19 01:46:00,53.6,44.4,29.91,WSW,248,5.1,6.1,71,0.00,,,0.00,VWS V14.00,2013-04-19 05:46:00,
2013-04-19 01:51:00,53.8,43.9,29.88,West,270,0.0,1.0,69,0.00,,,0.00,VWS V14.00,2013-04-19 05:51:00,
2013-04-19 01:56:00,53.8,45.0,29.88,West,270,7.4,8.4,72,0.00,,,0.00,VWS V14.00,2013-04-19 05:56:00,
2013-04-19 02:01:00,53.8,44.6,29.88,SW,225,0.0,1.0,71,0.00,,,0.00,VWS V14.00,2013-04-19 06:01:00,
2013-04-19 02:06:00,54.0,44.4,29.88,West,270,6.7,7.7,70,0.00,,,0.00,VWS V14.00,2013-04-19 06:06:00,
2013-04-19 02:11:00,54.0,44.4,29.88,SSW,202,0.0,1.0,70,0.00,,,0.00,VWS V14.00,2013-04-19 06:11:00,
2013-04-19 02:16:00,54.0,45.2,29.88,WSW,248,2.0,3.0,72,0.00,,,0.00,VWS V14.00,2013-04-19 06:16:00,
2013-04-19 02:21:00,54.1,46.0,29.85,West,270,1.6,2.6,74,0.00,,,0.00,VWS V14.00,2013-04-19 06:21:00,
2013-04-19 02:26:00,54.1,45.3,29.85,WSW,248,0.0,1.0,72,0.00,,,0.00,VWS V14.00,2013-04-19 06:26:00,
2013-04-19 02:31:00,54.1,45.3,29.85,WSW,248,0.0,1.0,72,0.00,,,0.00,VWS V14.00,2013-04-19 06:31:00,
2013-04-19 02:36:00,54.1,45.7,29.85,West,270,0.0,1.0,73,0.00,,,0.00,VWS V14.00,2013-04-19 06:36:00,
2013-04-19 02:41:00,54.3,46.6,29.85,SW,225,0.0,7.3,75,0.00,,,0.00,VWS V14.00,2013-04-19 06:41:00,
2013-04-19 02:46:00,54.3,46.6,29.85,NNW,338,0.0,1.0,75,0.00,,,0.00,VWS V14.00,2013-04-19 06:46:00,
2013-04-19 02:51:00,54.5,46.8,29.85,NNW,338,4.7,5.7,75,0.00,,,0.00,VWS V14.00,2013-04-19 06:51:00,
2013-04-19 02:56:00,54.5,46.0,29.85,WSW,248,1.6,2.6,73,0.00,,,0.00,VWS V14.00,2013-04-19 06:56:00,
2013-04-19 03:01:00,54.5,45.7,29.85,WSW,248,0.0,1.0,72,0.00,,,0.00,VWS V14.00,2013-04-19 07:01:00,
2013-04-19 03:06:00,54.5,46.8,29.82,West,270,0.0,1.0,75,0.00,,,0.00,VWS V14.00,2013-04-19 07:06:00,
2013-04-19 03:11:00,54.5,46.4,29.82,SW,225,0.0,4.5,74,0.00,,,0.00,VWS V14.00,2013-04-19 07:11:00,
2013-04-19 03:16:00,54.7,47.6,29.82,East,90,2.7,3.7,77,0.00,,,0.00,VWS V14.00,2013-04-19 07:16:00,
2013-04-19 03:21:00,54.7,48.0,29.82,SSW,202,0.0,1.0,78,0.00,,,0.00,VWS V14.00,2013-04-19 07:21:00,
2013-04-19 03:26:00,54.9,48.5,29.82,West,270,5.1,6.1,79,0.00,,,0.00,VWS V14.00,2013-04-19 07:26:00,
2013-04-19 03:31:00,54.9,48.8,29.82,WSW,248,0.0,1.0,80,0.00,,,0.00,VWS V14.00,2013-04-19 07:31:00,
2013-04-19 03:36:00,54.9,48.8,29.82,WSW,248,0.0,5.7,80,0.00,,,0.00,VWS V14.00,2013-04-19 07:36:00,
2013-04-19 03:41:00,55.0,49.3,29.82,West,270,8.6,9.6,81,0.00,,,0.00,VWS V14.00,2013-04-19 07:41:00,
2013-04-19 03:46:00,54.9,49.5,29.82,WNW,292,3.5,4.5,82,0.00,,,0.00,VWS V14.00,2013-04-19 07:46:00,
2013-04-19 03:51:00,54.9,48.8,29.82,West,270,0.0,1.0,80,0.00,,,0.00,VWS V14.00,2013-04-19 07:51:00,
2013-04-19 03:56:00,54.9,48.5,29.82,SW,225,1.6,2.6,79,0.00,,,0.00,VWS V14.00,2013-04-19 07:56:00,
2013-04-19 04:01:00,55.0,49.7,29.82,WSW,248,0.0,6.1,82,0.00,,,0.00,VWS V14.00,2013-04-19 08:01:00,
2013-04-19 04:06:00,55.0,48.7,29.82,WSW,248,0.0,1.0,79,0.00,,,0.00,VWS V14.00,2013-04-19 08:06:00,
2013-04-19 04:11:00,55.0,48.3,29.82,SW,225,0.0,1.0,78,0.00,,,0.00,VWS V14.00,2013-04-19 08:11:00,
2013-04-19 04:16:00,55.2,48.8,29.82,SW,225,0.0,1.0,79,0.00,,,0.00,VWS V14.00,2013-04-19 08:16:00,
2013-04-19 04:21:00,55.2,48.8,29.82,WSW,248,0.0,1.0,79,0.00,,,0.00,VWS V14.00,2013-04-19 08:21:00,
2013-04-19 04:26:00,55.4,49.3,29.82,SW,225,0.0,1.0,80,0.00,,,0.00,VWS V14.00,2013-04-19 08:26:00,
2013-04-19 04:31:00,55.4,49.3,29.82,SSW,202,0.0,1.0,80,0.00,,,0.00,VWS V14.00,2013-04-19 08:31:00,
2013-04-19 04:36:00,55.6,49.2,29.79,SW,225,0.0,1.0,79,0.00,,,0.00,VWS V14.00,2013-04-19 08:36:00,
2013-04-19 04:41:00,55.8,50.0,29.79,WSW,248,2.3,3.3,81,0.00,,,0.00,VWS V14.00,2013-04-19 08:41:00,
2013-04-19 04:46:00,55.8,50.4,29.79,SW,225,0.0,1.0,82,0.00,,,0.00,VWS V14.00,2013-04-19 08:46:00,
2013-04-19 04:51:00,55.9,50.5,29.79,West,270,0.0,1.0,82,0.00,,,0.00,VWS V14.00,2013-04-19 08:51:00,
2013-04-19 04:56:00,55.9,50.2,29.79,WSW,248,2.3,3.3,81,0.00,,,0.00,VWS V14.00,2013-04-19 08:56:00,
2013-04-19 05:01:00,56.1,50.7,29.79,SW,225,0.0,1.0,82,0.00,,,0.00,VWS V14.00,2013-04-19 09:01:00,
2013-04-19 05:06:00,56.1,50.4,29.79,South,180,0.0,1.0,81,0.00,,,0.00,VWS V14.00,2013-04-19 09:06:00,
2013-04-19 05:11:00,56.3,50.9,29.79,WNW,292,0.0,1.0,82,0.00,,,0.00,VWS V14.00,2013-04-19 09:11:00,
2013-04-19 05:16:00,56.5,51.4,29.79,SSW,202,1.6,2.6,83,0.00,,,0.00,VWS V14.00,2013-04-19 09:16:00,
2013-04-19 05:21:00,56.5,52.0,29.79,SW,225,2.0,3.0,85,0.00,,,0.00,VWS V14.00,2013-04-19 09:21:00,
2013-04-19 05:26:00,56.5,53.0,29.79,WSW,248,5.1,6.1,88,0.00,,,0.00,VWS V14.00,2013-04-19 09:26:00,
2013-04-19 05:31:00,56.7,52.8,29.79,SSW,202,4.3,5.3,87,0.00,,,0.00,VWS V14.00,2013-04-19 09:31:00,
2013-04-19 05:36:00,56.7,52.8,29.79,SW,225,6.3,7.3,87,0.00,,,0.00,VWS V14.00,2013-04-19 09:36:00,
2013-04-19 05:41:00,56.7,52.5,29.79,SSW,202,2.3,3.3,86,0.00,,,0.00,VWS V14.00,2013-04-19 09:41:00,
2013-04-19 05:46:00,56.8,53.3,29.79,SSW,202,0.0,2.6,88,0.00,,,0.00,VWS V14.00,2013-04-19 09:46:00,
2013-04-19 05:51:00,56.8,53.3,29.79,SW,225,0.0,1.0,88,0.00,,,0.00,VWS V14.00,2013-04-19 09:51:00,
2013-04-19 05:56:00,56.8,53.6,29.79,WSW,248,6.7,7.7,89,0.00,,,0.00,VWS V14.00,2013-04-19 09:56:00,
2013-04-19 06:01:00,57.0,54.4,29.79,SW,225,0.0,6.9,91,0.00,,,0.00,VWS V14.00,2013-04-19 10:01:00,
2013-04-19 06:06:00,57.0,54.1,29.76,WSW,248,5.5,6.5,90,0.00,,,0.00,VWS V14.00,2013-04-19 10:06:00,
2013-04-19 06:11:00,57.2,54.6,29.76,SW,225,2.0,9.6,91,0.00,,,0.00,VWS V14.00,2013-04-19 10:11:00,
2013-04-19 06:16:00,57.2,54.6,29.76,West,270,4.7,5.7,91,0.00,,,0.00,VWS V14.00,2013-04-19 10:16:00,
2013-04-19 06:21:00,57.4,54.8,29.76,SW,225,5.5,6.5,91,0.00,,,0.00,VWS V14.00,2013-04-19 10:21:00,
2013-04-19 06:26:00,57.4,54.8,29.76,SW,225,1.6,2.6,91,0.00,,,0.00,VWS V14.00,2013-04-19 10:26:00,
2013-04-19 06:31:00,57.4,54.5,29.76,SW,225,3.9,5.7,90,0.00,,,0.00,VWS V14.00,2013-04-19 10:31:00,
2013-04-19 06:36:00,57.6,54.7,29.76,SW,225,0.0,1.0,90,0.00,,,0.00,VWS V14.00,2013-04-19 10:36:00,
2013-04-19 06:41:00,57.7,55.1,29.76,WSW,248,6.3,7.3,91,0.00,,,0.00,VWS V14.00,2013-04-19 10:41:00,
2013-04-19 06:46:00,57.7,54.8,29.76,SW,225,0.0,1.0,90,0.00,,,0.00,VWS V14.00,2013-04-19 10:46:00,
2013-04-19 06:51:00,57.9,55.3,29.76,WSW,248,2.0,8.4,91,0.00,,,0.00,VWS V14.00,2013-04-19 10:51:00,
2013-04-19 06:56:00,57.9,54.7,29.76,SW,225,0.0,1.0,89,0.00,,,0.00,VWS V14.00,2013-04-19 10:56:00,
2013-04-19 07:01:00,58.1,55.2,29.76,SW,225,0.0,4.5,90,0.00,,,0.00,VWS V14.00,2013-04-19 11:01:00,
2013-04-19 07:06:00,58.5,55.5,29.79,SSW,202,2.7,3.7,90,0.00,,,0.00,VWS V14.00,2013-04-19 11:06:00,
2013-04-19 07:11:00,58.5,55.2,29.79,SW,225,0.0,1.0,89,0.00,,,0.00,VWS V14.00,2013-04-19 11:11:00,
2013-04-19 07:16:00,58.6,55.4,29.79,SW,225,8.2,9.2,89,0.00,,,0.00,VWS V14.00,2013-04-19 11:16:00,
2013-04-19 07:21:00,58.8,55.9,29.79,SW,225,5.1,7.7,90,0.00,,,0.00,VWS V14.00,2013-04-19 11:21:00,
2013-04-19 07:26:00,59.0,55.8,29.79,WSW,248,9.8,10.8,89,0.00,,,0.00,VWS V14.00,2013-04-19 11:26:00,
2013-04-19 07:31:00,59.2,56.0,29.79,SW,225,5.5,6.5,89,0.00,,,0.00,VWS V14.00,2013-04-19 11:31:00,
2013-04-19 07:36:00,59.2,55.6,29.79,WSW,248,0.0,1.0,88,0.00,,,0.00,VWS V14.00,2013-04-19 11:36:00,
2013-04-19 07:41:00,59.4,55.8,29.79,WSW,248,5.9,6.9,88,0.00,,,0.00,VWS V14.00,2013-04-19 11:41:00,
2013-04-19 07:46:00,59.4,55.8,29.79,SW,225,6.3,7.3,88,0.00,,,0.00,VWS V14.00,2013-04-19 11:46:00,
2013-04-19 07:51:00,59.7,56.2,29.79,WSW,248,2.7,3.7,88,0.00,,,0.00,VWS V14.00,2013-04-19 11:51:00,
2013-04-19 07:56:00,59.7,55.8,29.79,WSW,248,4.7,5.7,87,0.00,,,0.00,VWS V14.00,2013-04-19 11:56:00,
2013-04-19 08:01:00,59.9,55.4,29.79,WSW,248,0.0,1.0,85,0.00,,,0.00,VWS V14.00,2013-04-19 12:01:00,
2013-04-19 08:05:00,60.1,55.2,29.76,SW,225,0.0,1.0,84,0.00,,,0.00,VWS V14.00,2013-04-19 12:05:00,
2013-04-19 08:10:00,60.1,55.2,29.76,SW,225,7.0,8.0,84,0.00,,,0.00,VWS V14.00,2013-04-19 12:10:00,
2013-04-19 08:15:00,60.4,55.6,29.76,West,270,2.0,3.3,84,0.00,,,0.00,VWS V14.00,2013-04-19 12:15:00,
2013-04-19 08:20:00,60.6,55.4,29.76,NNW,338,10.6,11.6,83,0.00,,,0.00,VWS V14.00,2013-04-19 12:20:00,
2013-04-19 08:25:00,60.8,55.3,29.76,South,180,0.0,1.0,82,0.00,,,0.00,VWS V14.00,2013-04-19 12:25:00,
2013-04-19 08:30:00,61.3,55.8,29.76,NNW,338,0.0,1.0,82,0.00,,,0.00,VWS V14.00,2013-04-19 12:30:00,
2013-04-19 08:35:00,61.5,56.0,29.76,SW,225,7.0,8.0,82,0.00,,,0.00,VWS V14.00,2013-04-19 12:35:00,
2013-04-19 08:40:00,61.9,56.0,29.76,WSW,248,3.9,4.9,81,0.00,,,0.00,VWS V14.00,2013-04-19 12:40:00,
2013-04-19 08:45:00,62.1,55.8,29.76,SW,225,5.1,6.1,80,0.00,,,0.00,VWS V14.00,2013-04-19 12:45:00,
2013-04-19 08:50:00,62.6,56.0,29.76,SW,225,3.9,4.9,79,0.00,,,0.00,VWS V14.00,2013-04-19 12:50:00,
2013-04-19 08:55:00,62.6,55.7,29.76,SSW,202,7.0,8.0,78,0.00,,,0.00,VWS V14.00,2013-04-19 12:55:00,
2013-04-19 09:00:00,62.8,55.8,29.76,SSW,202,2.7,7.7,78,0.00,,,0.00,VWS V14.00,2013-04-19 13:00:00,
2013-04-19 09:05:00,63.0,55.7,29.76,WSW,248,11.4,12.4,77,0.00,,,0.00,VWS V14.00,2013-04-19 13:05:00,
2013-04-19 09:10:00,63.1,55.8,29.76,West,270,9.8,12.0,77,0.00,,,0.00,VWS V14.00,2013-04-19 13:10:00,
2013-04-19 09:15:00,63.1,55.5,29.76,SSW,202,7.0,8.0,76,0.00,,,0.00,VWS V14.00,2013-04-19 13:15:00,
2013-04-19 09:20:00,63.3,55.6,29.76,SSW,202,9.8,10.8,76,0.00,,,0.00,VWS V14.00,2013-04-19 13:20:00,
2013-04-19 09:25:00,63.7,56.0,29.76,NE,45,0.0,1.0,76,0.00,,,0.00,VWS V14.00,2013-04-19 13:25:00,
2013-04-19 09:30:00,64.2,56.1,29.76,West,270,9.8,10.8,75,0.00,,,0.00,VWS V14.00,2013-04-19 13:30:00,
2013-04-19 09:35:00,64.9,56.1,29.76,SW,225,0.0,1.0,73,0.00,,,0.00,VWS V14.00,2013-04-19 13:35:00,
2013-04-19 09:40:00,65.1,55.9,29.76,SSW,202,2.3,3.3,72,0.00,,,0.00,VWS V14.00,2013-04-19 13:40:00,
2013-04-19 09:45:00,65.7,56.4,29.76,West,270,4.7,5.7,72,0.00,,,0.00,VWS V14.00,2013-04-19 13:45:00,
2013-04-19 09:50:00,65.8,55.8,29.74,West,270,2.7,3.7,70,0.00,,,0.00,VWS V14.00,2013-04-19 13:50:00,
2013-04-19 09:55:00,66.6,56.1,29.74,WSW,248,9.4,10.4,69,0.00,,,0.00,VWS V14.00,2013-04-19 13:55:00,
2013-04-19 10:00:00,66.7,55.8,29.74,West,270,2.3,6.5,68,0.00,,,0.00,VWS V14.00,2013-04-19 14:00:00,
2013-04-19 10:05:00,67.5,56.5,29.74,SSW,202,1.6,2.6,68,0.00,,,0.00,VWS V14.00,2013-04-19 14:05:00,
2013-04-19 10:10:00,67.8,56.5,29.74,South,180,1.6,2.6,67,0.00,,,0.00,VWS V14.00,2013-04-19 14:10:00,
2013-04-19 10:15:00,67.8,56.1,29.74,WSW,248,7.4,8.4,66,0.00,,,0.00,VWS V14.00,2013-04-19 14:15:00,
2013-04-19 10:20:00,68.2,55.5,29.74,SW,225,18.0,19.0,64,0.00,,,0.00,VWS V14.00,2013-04-19 14:20:00,
2013-04-19 10:25:00,68.4,56.2,29.74,West,270,6.7,7.7,65,0.00,,,0.00,VWS V14.00,2013-04-19 14:25:00,
2013-04-19 10:30:00,69.1,56.4,29.74,SW,225,4.7,5.7,64,0.00,,,0.00,VWS V14.00,2013-04-19 14:30:00,
2013-04-19 10:35:00,68.9,54.9,29.74,West,270,16.8,17.8,61,0.00,,,0.00,VWS V14.00,2013-04-19 14:35:00,
2013-04-19 10:40:00,68.7,55.2,29.74,West,270,0.0,1.0,62,0.00,,,0.00,VWS V14.00,2013-04-19 14:40:00,
2013-04-19 10:45:00,68.9,55.4,29.74,SSW,202,0.0,9.6,62,0.00,,,0.00,VWS V14.00,2013-04-19 14:45:00,
2013-04-19 10:50:00,69.3,55.7,29.74,SW,225,13.3,14.3,62,0.00,,,0.00,VWS V14.00,2013-04-19 14:50:00,
2013-04-19 10:55:00,69.8,55.8,29.74,WSW,248,13.3,14.3,61,0.00,,,0.00,VWS V14.00,2013-04-19 14:55:00,
2013-04-19 11:00:00,69.6,55.6,29.74,WSW,248,11.0,12.0,61,0.00,,,0.00,VWS V14.00,2013-04-19 15:00:00,
2013-04-19 11:05:00,70.3,57.2,29.71,SSW,202,5.5,6.5,63,0.00,,,0.00,VWS V14.00,2013-04-19 15:05:00,
2013-04-19 11:10:00,70.3,54.9,29.71,SW,225,18.4,19.4,58,0.00,,,0.00,VWS V14.00,2013-04-19 15:10:00,
2013-04-19 11:15:00,70.2,55.6,29.71,SSW,202,7.4,8.4,60,0.00,,,0.00,VWS V14.00,2013-04-19 15:15:00,
2013-04-19 11:20:00,69.8,55.3,29.71,West,270,2.0,3.0,60,0.00,,,0.00,VWS V14.00,2013-04-19 15:20:00,
2013-04-19 11:25:00,69.6,55.1,29.71,South,180,10.6,11.6,60,0.00,,,0.00,VWS V14.00,2013-04-19 15:25:00,
2013-04-19 11:30:00,70.0,55.9,29.71,WNW,292,5.1,6.1,61,0.00,,,0.00,VWS V14.00,2013-04-19 15:30:00,
2013-04-19 11:35:00,70.2,55.2,29.71,SW,225,9.4,10.4,59,0.00,,,0.00,VWS V14.00,2013-04-19 15:35:00,
2013-04-19 11:40:00,70.3,54.4,29.71,SW,225,7.0,8.0,57,0.00,,,0.00,VWS V14.00,2013-04-19 15:40:00,
2013-04-19 11:45:00,70.5,55.0,29.71,SSW,202,5.9,6.9,58,0.00,,,0.00,VWS V14.00,2013-04-19 15:45:00,
2013-04-19 11:50:00,70.7,54.2,29.68,WNW,292,0.0,1.0,56,0.00,,,0.00,VWS V14.00,2013-04-19 15:50:00,
2013-04-19 11:55:00,70.7,54.2,29.68,SW,225,9.4,10.4,56,0.00,,,0.00,VWS V14.00,2013-04-19 15:55:00,
2013-04-19 12:00:00,70.7,54.2,29.68,SSW,202,2.3,9.6,56,0.00,,,0.00,VWS V14.00,2013-04-19 16:00:00,
2013-04-19 12:05:00,71.4,55.4,29.68,SW,225,3.5,4.5,57,0.00,,,0.00,VWS V14.00,2013-04-19 16:05:00,
2013-04-19 12:10:00,71.8,54.8,29.68,WSW,248,0.0,1.0,55,0.00,,,0.00,VWS V14.00,2013-04-19 16:10:00,
2013-04-19 12:15:00,72.5,53.9,29.68,SSW,202,12.1,13.1,52,0.00,,,0.00,VWS V14.00,2013-04-19 16:15:00,
2013-04-19 12:20:00,72.5,53.9,29.68,WNW,292,16.1,17.1,52,0.00,,,0.00,VWS V14.00,2013-04-19 16:20:00,
2013-04-19 12:25:00,72.7,53.0,29.68,WSW,248,3.5,4.5,50,0.00,,,0.00,VWS V14.00,2013-04-19 16:25:00,
2013-04-19 12:30:00,72.7,53.5,29.68,WNW,292,2.3,10.4,51,0.00,,,0.00,VWS V14.00,2013-04-19 16:30:00,
2013-04-19 12:35:00,73.0,53.3,29.65,SW,225,11.0,12.0,50,0.00,,,0.00,VWS V14.00,2013-04-19 16:35:00,
2013-04-19 12:40:00,72.9,53.2,29.65,SW,225,13.3,14.3,50,0.00,,,0.00,VWS V14.00,2013-04-19 16:40:00,
2013-04-19 12:45:00,72.3,53.2,29.65,WSW,248,7.0,8.0,51,0.00,,,0.00,VWS V14.00,2013-04-19 16:45:00,
2013-04-19 12:50:00,72.3,53.7,29.65,SSW,202,3.5,4.5,52,0.00,,,0.00,VWS V14.00,2013-04-19 16:50:00,
2013-04-19 12:55:00,72.7,53.5,29.65,SW,225,5.1,9.6,51,0.00,,,0.00,VWS V14.00,2013-04-19 16:55:00,
2013-04-19 13:00:00,72.5,53.4,29.65,South,180,18.4,19.4,51,0.00,,,0.00,VWS V14.00,2013-04-19 17:00:00,
2013-04-19 13:05:00,72.3,53.2,29.65,SW,225,14.9,15.9,51,0.00,,,0.00,VWS V14.00,2013-04-19 17:05:00,
2013-04-19 13:10:00,72.5,53.9,29.65,SW,225,2.0,3.0,52,0.00,,,0.00,VWS V14.00,2013-04-19 17:10:00,
2013-04-19 13:15:00,72.7,53.5,29.65,SSW,202,5.1,6.1,51,0.00,,,0.00,VWS V14.00,2013-04-19 17:15:00,
2013-04-19 13:20:00,72.5,53.9,29.65,South,180,5.1,6.1,52,0.00,,,0.00,VWS V14.00,2013-04-19 17:20:00,
2013-04-19 13:25:00,72.1,53.0,29.65,SW,225,4.7,5.7,51,0.00,,,0.00,VWS V14.00,2013-04-19 17:25:00,
2013-04-19 13:30:00,72.0,52.9,29.65,SW,225,7.0,8.0,51,0.00,,,0.00,VWS V14.00,2013-04-19 17:30:00,
2013-04-19 13:35:00,72.0,53.4,29.65,West,270,8.2,9.2,52,0.00,,,0.00,VWS V14.00,2013-04-19 17:35:00,
2013-04-19 13:40:00,72.3,54.2,29.65,WSW,248,0.0,6.9,53,0.00,,,0.00,VWS V14.00,2013-04-19 17:40:00,
2013-04-19 13:45:00,72.7,54.6,29.65,SW,225,4.3,5.3,53,0.00,,,0.00,VWS V14.00,2013-04-19 17:45:00,
2013-04-19 13:50:00,72.9,54.8,29.62,ENE,68,5.5,6.5,53,0.00,,,0.00,VWS V14.00,2013-04-19 17:50:00,
2013-04-19 13:55:00,72.9,55.3,29.62,SSW,202,0.0,1.0,54,0.00,,,0.00,VWS V14.00,2013-04-19 17:55:00,
2013-04-19 14:00:00,73.2,54.6,29.62,West,270,8.2,9.2,52,0.00,,,0.00,VWS V14.00,2013-04-19 18:00:00,
2013-04-19 14:05:00,73.2,53.5,29.62,West,270,19.2,20.2,50,0.00,,,0.00,VWS V14.00,2013-04-19 18:05:00,
2013-04-19 14:10:00,73.0,53.9,29.62,WSW,248,2.3,3.3,51,0.00,,,0.00,VWS V14.00,2013-04-19 18:10:00,
2013-04-19 14:15:00,72.9,54.2,29.62,WSW,248,4.7,9.6,52,0.00,,,0.00,VWS V14.00,2013-04-19 18:15:00,
2013-04-19 14:20:00,73.0,54.4,29.62,SSW,202,11.0,13.5,52,0.00,,,0.00,VWS V14.00,2013-04-19 18:20:00,
2013-04-19 14:25:00,73.2,54.0,29.62,WNW,292,9.4,10.4,51,0.00,,,0.00,VWS V14.00,2013-04-19 18:25:00,
2013-04-19 14:30:00,73.2,53.5,29.62,SSW,202,17.2,18.2,50,0.00,,,0.00,VWS V14.00,2013-04-19 18:30:00,
2013-04-19 14:35:00,73.2,54.0,29.59,SW,225,12.5,13.5,51,0.00,,,0.00,VWS V14.00,2013-04-19 18:35:00,
2013-04-19 14:40:00,73.2,54.0,29.59,SW,225,2.0,12.0,51,0.00,,,0.00,VWS V14.00,2013-04-19 18:40:00,
2013-04-19 14:45:00,73.0,54.4,29.59,West,270,5.5,6.5,52,0.00,,,0.00,VWS V14.00,2013-04-19 18:45:00,
2013-04-19 14:50:00,73.0,54.4,29.59,WSW,248,14.9,15.9,52,0.00,,,0.00,VWS V14.00,2013-04-19 18:50:00,
2013-04-19 14:55:00,72.7,54.6,29.59,WSW,248,5.5,10.4,53,0.00,,,0.00,VWS V14.00,2013-04-19 18:55:00,
2013-04-19 15:00:00,72.5,54.4,29.59,WSW,248,2.0,3.0,53,0.00,,,0.00,VWS V14.00,2013-04-19 19:00:00,
2013-04-19 15:05:00,72.1,54.6,29.59,West,270,11.0,12.0,54,0.00,,,0.00,VWS V14.00,2013-04-19 19:05:00,
2013-04-19 15:10:00,72.3,54.8,29.59,SW,225,9.8,10.8,54,0.00,,,0.00,VWS V14.00,2013-04-19 19:10:00,
2013-04-19 15:15:00,72.5,55.4,29.59,SW,225,14.1,15.1,55,0.00,,,0.00,VWS V14.00,2013-04-19 19:15:00,
2013-04-19 15:20:00,72.5,55.4,29.59,West,270,18.4,19.4,55,0.00,,,0.00,VWS V14.00,2013-04-19 19:20:00,
2013-04-19 15:25:00,72.9,55.3,29.59,SSW,202,11.4,12.4,54,0.00,,,0.00,VWS V14.00,2013-04-19 19:25:00,
2013-04-19 15:30:00,72.7,55.1,29.59,SSW,202,11.4,12.4,54,0.00,,,0.00,VWS V14.00,2013-04-19 19:30:00,
2013-04-19 15:35:00,72.3,55.3,29.56,SW,225,14.1,15.1,55,0.00,,,0.00,VWS V14.00,2013-04-19 19:35:00,
2013-04-19 15:40:00,72.0,55.4,29.56,West,270,21.1,22.1,56,0.00,,,0.00,VWS V14.00,2013-04-19 19:40:00,
2013-04-19 15:45:00,71.6,55.6,29.56,West,270,12.9,13.9,57,0.00,,,0.00,VWS V14.00,2013-04-19 19:45:00,
2013-04-19 15:50:00,71.2,55.7,29.59,WNW,292,10.2,11.2,58,0.00,,,0.00,VWS V14.00,2013-04-19 19:50:00,
2013-04-19 15:55:00,71.1,56.0,29.59,West,270,11.4,12.4,59,0.00,,,0.00,VWS V14.00,2013-04-19 19:55:00,
2013-04-19 16:00:00,70.9,56.3,29.59,WSW,248,22.3,23.3,60,0.00,,,0.00,VWS V14.00,2013-04-19 20:00:00,
2013-04-19 16:05:00,70.7,56.6,29.59,WSW,248,22.3,23.3,61,0.00,,,0.00,VWS V14.00,2013-04-19 20:05:00,
2013-04-19 16:10:00,70.5,56.9,29.56,WSW,248,5.9,6.9,62,0.00,,,0.00,VWS V14.00,2013-04-19 20:10:00,
2013-04-19 16:15:00,70.0,57.7,29.56,SW,225,26.6,27.6,65,0.00,,,0.00,VWS V14.00,2013-04-19 20:15:00,
2013-04-19 16:20:00,70.0,57.7,29.56,SSW,202,9.8,10.8,65,0.00,,,0.00,VWS V14.00,2013-04-19 20:20:00,
2013-04-19 16:25:00,69.6,58.6,29.56,WSW,248,11.4,21.8,68,0.00,,,0.00,VWS V14.00,2013-04-19 20:25:00,
2013-04-19 16:30:00,69.3,58.7,29.56,SW,225,7.4,8.4,69,0.00,,,0.00,VWS V14.00,2013-04-19 20:30:00,
2013-04-19 16:35:00,68.9,58.7,29.56,WSW,248,7.0,15.9,70,0.00,,,0.00,VWS V14.00,2013-04-19 20:35:00,
2013-04-19 16:40:00,68.9,58.3,29.56,WSW,248,0.0,1.0,69,0.00,,,0.00,VWS V14.00,2013-04-19 20:40:00,
2013-04-19 16:45:00,68.9,59.1,29.56,West,270,5.5,6.5,71,0.00,,,0.00,VWS V14.00,2013-04-19 20:45:00,
2013-04-19 16:50:00,68.5,58.8,29.56,WSW,248,2.3,13.1,71,0.00,,,0.00,VWS V14.00,2013-04-19 20:50:00,
2013-04-19 16:55:00,68.5,58.4,29.56,SW,225,5.5,6.5,70,0.00,,,0.00,VWS V14.00,2013-04-19 20:55:00,
2013-04-19 17:00:00,68.7,59.0,29.56,West,270,10.2,11.2,71,0.00,,,0.00,VWS V14.00,2013-04-19 21:00:00,
2013-04-19 17:05:00,68.7,59.0,29.56,West,270,19.2,20.2,71,0.00,,,0.00,VWS V14.00,2013-04-19 21:05:00,
2013-04-19 17:10:00,68.7,59.0,29.56,WSW,248,13.7,14.7,71,0.00,,,0.00,VWS V14.00,2013-04-19 21:10:00,
2013-04-19 17:15:00,68.7,59.0,29.56,WSW,248,11.0,15.1,71,0.00,,,0.00,VWS V14.00,2013-04-19 21:15:00,
2013-04-19 17:20:00,68.7,59.0,29.56,WNW,292,6.7,8.0,71,0.00,,,0.00,VWS V14.00,2013-04-19 21:20:00,
2013-04-19 17:25:00,68.7,59.0,29.56,SSW,202,6.3,11.6,71,0.00,,,0.00,VWS V14.00,2013-04-19 21:25:00,
2013-04-19 17:30:00,68.4,59.8,29.56,WSW,248,13.7,14.7,74,0.00,,,0.00,VWS V14.00,2013-04-19 21:30:00,
2013-04-19 17:35:00,68.2,59.2,29.53,WSW,248,7.4,8.4,73,0.00,,,0.00,VWS V14.00,2013-04-19 21:35:00,
2013-04-19 17:40:00,68.2,59.6,29.53,SW,225,4.3,5.3,74,0.00,,,0.00,VWS V14.00,2013-04-19 21:40:00,
2013-04-19 17:45:00,68.2,59.6,29.53,West,270,6.7,11.2,74,0.00,,,0.00,VWS V14.00,2013-04-19 21:45:00,
2013-04-19 17:50:00,68.2,59.2,29.53,SW,225,14.1,15.1,73,0.00,,,0.00,VWS V14.00,2013-04-19 21:50:00,
2013-04-19 17:55:00,68.0,59.4,29.53,SW,225,7.4,8.4,74,0.00,,,0.00,VWS V14.00,2013-04-19 21:55:00,
2013-04-19 18:00:00,67.8,60.0,29.53,West,270,6.7,9.2,76,0.00,,,0.00,VWS V14.00,2013-04-19 22:00:00,
2013-04-19 18:05:00,67.6,59.4,29.53,SW,225,21.1,22.1,75,0.00,,,0.00,VWS V14.00,2013-04-19 22:05:00,
2013-04-19 18:10:00,67.5,59.3,29.53,WSW,248,14.9,15.9,75,0.00,,,0.00,VWS V14.00,2013-04-19 22:10:00,
2013-04-19 18:15:00,67.5,59.6,29.53,West,270,13.7,15.9,76,0.00,,,0.00,VWS V14.00,2013-04-19 22:15:00,
2013-04-19 18:20:00,67.3,59.5,29.50,WSW,248,5.1,10.8,76,0.00,,,0.00,VWS V14.00,2013-04-19 22:20:00,
2013-04-19 18:25:00,67.3,59.5,29.50,SW,225,16.8,17.8,76,0.00,,,0.00,VWS V14.00,2013-04-19 22:25:00,
2013-04-19 18:30:00,67.1,59.3,29.50,WSW,248,5.5,25.7,76,0.00,,,0.00,VWS V14.00,2013-04-19 22:30:00,
2013-04-19 18:35:00,66.9,59.5,29.50,WSW,248,11.0,12.0,77,0.00,,,0.00,VWS V14.00,2013-04-19 22:35:00,
2013-04-19 18:40:00,66.6,59.5,29.50,WSW,248,7.8,8.8,78,0.00,,,0.00,VWS V14.00,2013-04-19 22:40:00,
2013-04-19 18:45:00,66.4,59.0,29.50,South,180,13.3,14.3,77,0.00,,,0.00,VWS V14.00,2013-04-19 22:45:00,
2013-04-19 18:50:00,66.2,58.8,29.50,SSW,202,0.0,1.0,77,0.00,,,0.00,VWS V14.00,2013-04-19 22:50:00,
2013-04-19 18:55:00,66.2,58.8,29.50,WSW,248,2.7,3.7,77,0.00,,,0.00,VWS V14.00,2013-04-19 22:55:00,
2013-04-19 19:00:00,65.8,59.2,29.50,SW,225,13.7,19.4,79,0.00,,,0.00,VWS V14.00,2013-04-19 23:00:00,
2013-04-19 19:05:00,65.7,59.0,29.50,SSW,202,5.5,6.5,79,0.00,,,0.00,VWS V14.00,2013-04-19 23:05:00,
2013-04-19 19:10:00,65.7,59.3,29.50,West,270,12.9,13.9,80,0.00,,,0.00,VWS V14.00,2013-04-19 23:10:00,
2013-04-19 19:15:00,65.5,59.2,29.50,WSW,248,11.0,12.0,80,0.00,,,0.00,VWS V14.00,2013-04-19 23:15:00,
2013-04-19 19:20:00,65.3,59.0,29.50,WSW,248,9.4,10.4,80,0.00,,,0.00,VWS V14.00,2013-04-19 23:20:00,
2013-04-19 19:25:00,65.1,58.8,29.50,SSE,158,11.0,18.6,80,0.00,,,0.00,VWS V14.00,2013-04-19 23:25:00,
2013-04-19 19:30:00,65.1,58.8,29.50,WSW,248,10.2,11.2,80,0.00,,,0.00,VWS V14.00,2013-04-19 23:30:00,
2013-04-19 19:35:00,64.9,58.6,29.50,SW,225,4.3,6.5,80,0.00,,,0.00,VWS V14.00,2013-04-19 23:35:00,
2013-04-19 19:40:00,64.8,58.5,29.50,SW,225,7.0,8.0,80,0.00,,,0.00,VWS V14.00,2013-04-19 23:40:00,
2013-04-19 19:45:00,64.8,58.8,29.50,WNW,292,11.0,12.0,81,0.00,,,0.00,VWS V14.00,2013-04-19 23:45:00,
2013-04-19 19:50:00,64.6,58.6,29.50,SW,225,6.3,7.3,81,0.00,,,0.00,VWS V14.00,2013-04-19 23:50:00,
2013-04-19 19:55:00,64.6,58.6,29.50,WSW,248,16.1,17.1,81,0.00,,,0.00,VWS V14.00,2013-04-19 23:55:00,
2013-04-19 20:00:00,64.6,58.6,29.50,SW,225,16.8,17.8,81,0.00,,,0.00,VWS V14.00,2013-04-20 00:00:00,
2013-04-19 20:05:00,64.6,58.6,29.50,WNW,292,13.7,14.7,81,0.00,,,0.00,VWS V14.00,2013-04-20 00:05:00,
2013-04-19 20:10:00,64.6,59.0,29.50,West,270,4.3,7.7,82,0.00,,,0.00,VWS V14.00,2013-04-20 00:10:00,
2013-04-19 20:15:00,64.6,58.6,29.50,SSW,202,2.7,3.7,81,0.00,,,0.00,VWS V14.00,2013-04-20 00:15:00,
2013-04-19 20:20:00,64.6,58.6,29.53,SSW,202,7.0,8.0,81,0.00,,,0.00,VWS V14.00,2013-04-20 00:20:00,
2013-04-19 20:25:00,64.6,58.6,29.53,SSW,202,15.7,16.7,81,0.00,,,0.00,VWS V14.00,2013-04-20 00:25:00,
2013-04-19 20:30:00,64.6,59.0,29.53,WNW,292,13.3,14.3,82,0.00,,,0.00,VWS V14.00,2013-04-20 00:30:00,
2013-04-19 20:35:00,64.6,59.0,29.50,West,270,4.7,8.4,82,0.00,,,0.00,VWS V14.00,2013-04-20 00:35:00,
2013-04-19 20:40:00,64.6,58.6,29.50,SE,135,2.3,6.5,81,0.00,,,0.00,VWS V14.00,2013-04-20 00:40:00,
2013-04-19 20:45:00,64.6,59.0,29.50,SW,225,3.9,8.4,82,0.00,,,0.00,VWS V14.00,2013-04-20 00:45:00,
2013-04-19 20:50:00,64.6,58.6,29.50,SW,225,13.7,14.7,81,0.00,,,0.00,VWS V14.00,2013-04-20 00:50:00,
2013-04-19 20:55:00,64.6,59.3,29.50,South,180,11.0,12.0,83,0.00,,,0.00,VWS V14.00,2013-04-20 00:55:00,
2013-04-19 21:00:00,64.4,59.1,29.50,WSW,248,5.1,9.6,83,0.00,,,0.00,VWS V14.00,2013-04-20 01:00:00,
2013-04-19 21:05:00,64.4,59.1,29.50,South,180,14.1,15.1,83,0.00,,,0.00,VWS V14.00,2013-04-20 01:05:00,
2013-04-19 21:10:00,64.4,59.1,29.50,WSW,248,6.3,7.3,83,0.00,,,0.00,VWS V14.00,2013-04-20 01:10:00,
2013-04-19 21:15:00,64.4,59.5,29.50,SW,225,14.1,15.1,84,0.00,,,0.00,VWS V14.00,2013-04-20 01:15:00,
2013-04-19 21:20:00,64.4,59.5,29.50,SW,225,9.8,12.0,84,0.00,,,0.00,VWS V14.00,2013-04-20 01:20:00,
2013-04-19 21:25:00,64.4,59.5,29.50,SSW,202,4.7,10.8,84,0.00,,,0.00,VWS V14.00,2013-04-20 01:25:00,
2013-04-19 21:30:00,64.4,59.5,29.50,SSW,202,8.6,13.1,84,0.00,,,0.00,VWS V14.00,2013-04-20 01:30:00,
2013-04-19 21:35:00,64.4,59.8,29.47,South,180,7.4,8.8,85,0.00,,,0.00,VWS V14.00,2013-04-20 01:35:00,
2013-04-19 21:40:00,64.2,60.0,29.47,WSW,248,7.4,8.4,86,0.00,,,0.00,VWS V14.00,2013-04-20 01:40:00,
2013-04-19 21:45:00,64.2,60.0,29.47,SW,225,6.3,7.3,86,0.00,,,0.00,VWS V14.00,2013-04-20 01:45:00,
2013-04-19 21:50:00,64.2,60.0,29.47,West,270,8.6,9.6,86,0.00,,,0.00,VWS V14.00,2013-04-20 01:50:00,
2013-04-19 21:55:00,64.4,60.1,29.47,SW,225,5.9,6.9,86,0.00,,,0.00,VWS V14.00,2013-04-20 01:55:00,
2013-04-19 22:00:00,64.4,60.5,29.47,SSW,202,0.0,1.0,87,0.00,,,0.00,VWS V14.00,2013-04-20 02:00:00,
2013-04-19 22:05:00,64.4,60.5,29.47,WSW,248,4.3,5.3,87,0.00,,,0.00,VWS V14.00,2013-04-20 02:05:00,
2013-04-19 22:10:00,64.4,60.5,29.47,West,270,13.3,14.3,87,0.00,,,0.00,VWS V14.00,2013-04-20 02:10:00,
2013-04-19 22:15:00,64.6,61.0,29.47,SW,225,7.0,14.3,88,0.00,,,0.00,VWS V14.00,2013-04-20 02:15:00,
2013-04-19 22:20:00,64.6,61.0,29.47,SSW,202,14.9,15.9,88,0.00,,,0.00,VWS V14.00,2013-04-20 02:20:00,
2013-04-19 22:25:00,64.8,60.8,29.47,West,270,0.0,1.0,87,0.00,,,0.00,VWS V14.00,2013-04-20 02:25:00,
2013-04-19 22:30:00,64.8,60.8,29.47,West,270,2.0,6.5,87,0.00,,,0.00,VWS V14.00,2013-04-20 02:30:00,
2013-04-19 22:35:00,64.8,60.8,29.47,WSW,248,9.8,10.8,87,0.00,,,0.00,VWS V14.00,2013-04-20 02:35:00,
2013-04-19 22:40:00,64.8,60.8,29.47,WSW,248,2.0,3.0,87,0.00,,,0.00,VWS V14.00,2013-04-20 02:40:00,
2013-04-19 22:45:00,64.9,61.0,29.47,SW,225,5.5,6.5,87,0.00,,,0.00,VWS V14.00,2013-04-20 02:45:00,
2013-04-19 22:50:00,64.9,61.0,29.44,SW,225,8.6,9.6,87,0.00,,,0.00,VWS V14.00,2013-04-20 02:50:00,
2013-04-19 22:55:00,65.1,61.2,29.44,South,180,4.7,12.0,87,0.00,,,0.00,VWS V14.00,2013-04-20 02:55:00,
2013-04-19 23:00:00,65.1,60.8,29.44,SSW,202,2.0,12.0,86,0.00,,,0.00,VWS V14.00,2013-04-20 03:00:00,
2013-04-19 23:04:00,65.1,60.8,29.44,SW,225,2.3,3.3,86,0.00,,,0.00,VWS V14.00,2013-04-20 03:04:00,
2013-04-19 23:09:00,65.5,61.5,29.44,WSW,248,9.8,13.1,87,0.00,,,0.00,VWS V14.00,2013-04-20 03:09:00,
2013-04-19 23:14:00,65.5,61.2,29.44,SW,225,4.7,8.4,86,0.00,,,0.00,VWS V14.00,2013-04-20 03:14:00,
2013-04-19 23:19:00,65.7,61.4,29.44,WNW,292,7.0,8.0,86,0.00,,,0.00,VWS V14.00,2013-04-20 03:19:00,
2013-04-19 23:24:00,65.7,61.4,29.44,SSW,202,14.9,15.9,86,0.00,,,0.00,VWS V14.00,2013-04-20 03:24:00,
2013-04-19 23:29:00,65.7,61.4,29.44,WSW,248,4.3,5.3,86,0.00,,,0.00,VWS V14.00,2013-04-20 03:29:00,
2013-04-19 23:34:00,65.7,61.4,29.44,SW,225,13.3,14.3,86,0.00,,,0.00,VWS V14.00,2013-04-20 03:34:00,
2013-04-19 23:39:00,65.8,61.5,29.44,SW,225,8.6,9.6,86,0.00,,,0.00,VWS V14.00,2013-04-20 03:39:00,
2013-04-19 23:44:00,65.8,61.5,29.44,North,0,1.6,6.9,86,0.00,,,0.00,VWS V14.00,2013-04-20 03:44:00,
2013-04-19 23:49:00,65.8,61.5,29.44,WSW,248,12.9,13.9,86,0.00,,,0.00,VWS V14.00,2013-04-20 03:49:00,
2013-04-19 23:54:00,65.8,61.2,29.44,SSW,202,9.4,10.4,85,0.00,,,0.00,VWS V14.00,2013-04-20 03:54:00,
2013-04-19 23:59:00,66.0,61.4,29.44,WSW,248,8.2,9.2,85,0.00,,,0.00,VWS V14.00,2013-04-20 03:59:00,